createdAt,value
2023-02-27T07:12:10.686Z,-2.26
2023-02-27T07:13:17.319Z,-2.25
2023-02-27T07:14:21.196Z,-2.25
2023-02-27T07:15:23.717Z,-2.20
2023-02-27T07:16:26.462Z,-2.18
2023-02-27T07:17:29.392Z,-2.19
2023-02-27T07:18:32.084Z,-1.84
2023-02-27T07:19:35.960Z,-1.85
2023-02-27T07:20:38.265Z,-1.89
2023-02-27T07:21:40.597Z,-1.92
2023-02-27T07:22:42.837Z,-2.01
2023-02-27T07:23:45.139Z,-1.93
2023-02-27T07:24:47.335Z,-1.84
2023-02-27T07:25:49.683Z,-1.77
2023-02-27T07:26:51.974Z,-1.72
2023-02-27T07:27:54.628Z,-1.85
2023-02-27T07:28:56.825Z,-1.60
2023-02-27T07:29:59.180Z,-1.59
2023-02-27T07:31:02.196Z,-1.57
2023-02-27T07:32:04.569Z,-1.59
2023-02-27T07:33:07.177Z,-1.53
2023-02-27T07:34:11.858Z,-1.52
2023-02-27T07:35:14.296Z,-1.70
2023-02-27T07:36:16.725Z,-1.64
2023-02-27T07:37:18.964Z,-1.50
2023-02-27T07:38:22.804Z,-1.42
2023-02-27T07:39:25.082Z,-1.30
2023-02-27T07:40:27.549Z,-1.35
2023-02-27T07:41:31.271Z,-1.45
2023-02-27T07:42:35.799Z,-1.33
2023-02-27T07:43:38.132Z,-1.44
2023-02-27T07:44:40.669Z,-1.55
2023-02-27T07:45:42.892Z,-1.22
2023-02-27T07:46:47.268Z,-1.27
2023-02-27T07:47:49.670Z,-1.27
2023-02-27T07:48:51.911Z,-1.29
2023-02-27T07:49:55.041Z,-1.11
2023-02-27T07:50:57.403Z,-1.16
2023-02-27T07:51:59.777Z,-0.95
2023-02-27T07:53:02.103Z,-1.03
2023-02-27T07:54:04.670Z,-0.98
2023-02-27T07:55:07.852Z,-0.71
2023-02-27T07:56:10.054Z,-0.79
2023-02-27T07:57:12.452Z,-0.74
2023-02-27T07:58:14.844Z,-0.77
2023-02-27T07:59:17.062Z,-0.88
2023-02-27T08:00:19.793Z,-0.88
2023-02-27T08:01:22.112Z,-0.64
2023-02-27T08:02:24.377Z,-0.70
2023-02-27T08:03:26.626Z,-0.84
2023-02-27T08:04:28.974Z,-0.53
2023-02-27T08:05:31.618Z,-0.56
2023-02-27T08:06:33.919Z,-0.29
2023-02-27T08:07:36.712Z,-0.32
2023-02-27T08:08:38.963Z,-0.39
2023-02-27T08:09:41.285Z,-0.17
2023-02-27T08:10:43.493Z,-0.37
2023-02-27T08:11:48.773Z,-0.27
2023-02-27T08:12:51.392Z,0.10
2023-02-27T08:14:00.676Z,-0.20
2023-02-27T08:15:04.030Z,-0.15
2023-02-27T08:16:06.799Z,0.12
2023-02-27T08:17:09.276Z,0.41
2023-02-27T08:18:11.607Z,0.15
2023-02-27T08:19:14.792Z,-0.13
2023-02-27T08:20:22.452Z,0.02
2023-02-27T08:21:25.627Z,0.10
2023-02-27T08:22:28.053Z,0.36
2023-02-27T08:23:31.441Z,0.55
2023-02-27T08:24:33.887Z,0.50
2023-02-27T08:25:36.443Z,-0.12
2023-02-27T08:26:38.632Z,0.03
2023-02-27T08:27:41.177Z,0.12
2023-02-27T08:28:43.381Z,0.07
2023-02-27T08:29:45.632Z,0.38
2023-02-27T08:30:48.963Z,0.59
2023-02-27T08:31:51.384Z,0.62
2023-02-27T08:32:54.284Z,0.38
2023-02-27T08:34:04.585Z,0.64
2023-02-27T08:35:11.716Z,0.31
2023-02-27T08:36:14.348Z,0.13
2023-02-27T08:37:16.674Z,0.33
2023-02-27T08:38:18.854Z,0.51
2023-02-27T08:39:24.192Z,0.65
2023-02-27T08:40:26.671Z,0.56
2023-02-27T08:41:29.012Z,0.78
2023-02-27T08:42:31.357Z,0.66
2023-02-27T08:43:33.890Z,0.44
2023-02-27T08:44:36.241Z,0.51
2023-02-27T08:45:38.576Z,0.76
2023-02-27T08:46:40.964Z,0.62
2023-02-27T08:47:45.307Z,0.72
2023-02-27T08:48:47.546Z,0.95
2023-02-27T08:49:49.774Z,1.09
2023-02-27T08:50:52.367Z,1.41
2023-02-27T08:51:54.846Z,1.31
2023-02-27T08:52:57.242Z,0.86
2023-02-27T08:53:59.568Z,0.66
2023-02-27T08:55:01.897Z,0.54
2023-02-27T08:56:04.207Z,0.58
2023-02-27T08:57:06.634Z,0.69
2023-02-27T08:58:09.912Z,0.62
2023-02-27T08:59:12.170Z,0.78
2023-02-27T09:00:15.092Z,0.84
2023-02-27T09:01:17.731Z,1.08
2023-02-27T09:02:23.623Z,1.20
2023-02-27T09:03:28.696Z,1.38
2023-02-27T09:04:31.058Z,1.13
2023-02-27T09:05:35.310Z,0.89
2023-02-27T09:06:38.022Z,1.06
2023-02-27T09:07:40.488Z,1.31
2023-02-27T09:08:42.752Z,1.51
2023-02-27T09:09:45.232Z,1.04
2023-02-27T09:10:47.543Z,0.85
2023-02-27T09:11:50.916Z,1.04
2023-02-27T09:12:53.763Z,1.41
2023-02-27T09:13:56.202Z,1.31
2023-02-27T09:14:58.776Z,1.23
2023-02-27T09:16:02.364Z,1.09
2023-02-27T09:17:04.587Z,1.26
2023-02-27T09:18:07.100Z,0.89
2023-02-27T09:19:09.429Z,1.23
2023-02-27T09:20:12.237Z,1.26
2023-02-27T09:21:14.749Z,1.28
2023-02-27T09:22:18.193Z,1.10
2023-02-27T09:23:20.529Z,1.30
2023-02-27T09:24:22.902Z,1.34
2023-02-27T09:25:26.003Z,1.16
2023-02-27T09:26:40.940Z,1.09
2023-02-27T09:27:45.906Z,1.18
2023-02-27T09:28:49.549Z,1.16
2023-02-27T09:29:56.295Z,1.28
2023-02-27T09:31:03.093Z,1.40
2023-02-27T09:32:05.413Z,1.76
2023-02-27T09:33:07.718Z,1.82
2023-02-27T09:34:09.967Z,1.45
2023-02-27T09:35:13.612Z,1.46
2023-02-27T09:36:16.236Z,1.26
2023-02-27T09:37:19.212Z,1.43
2023-02-27T09:38:21.667Z,1.15
2023-02-27T09:39:24.463Z,1.26
2023-02-27T09:40:29.590Z,1.48
2023-02-27T09:41:51.722Z,1.52
2023-02-27T09:42:58.133Z,1.99
2023-02-27T09:44:01.615Z,1.53
2023-02-27T09:45:06.340Z,1.77
2023-02-27T09:46:16.338Z,1.49
2023-02-27T09:47:27.616Z,1.35
2023-02-27T09:48:36.082Z,1.59
2023-02-27T09:49:57.284Z,2.03
2023-02-27T09:51:00.352Z,2.47
2023-02-27T09:52:02.995Z,2.53
2023-02-27T09:53:12.797Z,2.10
2023-02-27T09:54:15.174Z,1.78
2023-02-27T09:55:22.032Z,1.95
2023-02-27T09:56:32.553Z,2.27
2023-02-27T09:57:46.380Z,2.35
2023-02-27T09:59:10.102Z,1.78
2023-02-27T10:00:30.394Z,1.88
2023-02-27T10:01:37.075Z,1.93
2023-02-27T10:03:23.486Z,2.07
2023-02-27T10:04:38.034Z,2.01
2023-02-27T10:05:55.549Z,2.20
2023-02-27T10:07:05.688Z,1.91
2023-02-27T10:08:30.585Z,2.16
2023-02-27T10:09:55.137Z,2.39
2023-02-27T10:11:05.221Z,2.68
2023-02-27T10:12:21.694Z,2.50
2023-02-27T10:13:40.521Z,2.71
2023-02-27T10:14:48.223Z,1.95
2023-02-27T10:15:52.786Z,2.03
2023-02-27T10:16:58.099Z,2.22
2023-02-27T10:18:19.882Z,2.55
2023-02-27T10:19:30.854Z,2.68
2023-02-27T10:20:37.121Z,2.50
2023-02-27T10:21:49.032Z,2.39
2023-02-27T10:22:53.319Z,2.66
2023-02-27T10:24:01.485Z,2.66
2023-02-27T10:25:21.312Z,2.74
2023-02-27T10:26:35.707Z,2.46
2023-02-27T10:27:38.613Z,2.39
2023-02-27T10:28:40.942Z,2.61
2023-02-27T10:29:43.351Z,2.80
2023-02-27T10:30:51.545Z,2.22
2023-02-27T10:32:11.527Z,2.05
2023-02-27T10:33:23.892Z,2.13
2023-02-27T10:34:29.254Z,2.02
2023-02-27T10:35:38.246Z,2.33
2023-02-27T10:36:41.063Z,2.15
2023-02-27T10:37:49.847Z,2.42
2023-02-27T10:38:56.066Z,2.56
2023-02-27T10:40:04.415Z,2.29
2023-02-27T10:41:10.447Z,2.62
2023-02-27T10:42:14.610Z,2.65
2023-02-27T10:43:19.055Z,2.83
2023-02-27T10:44:21.574Z,2.39
2023-02-27T10:45:24.183Z,2.46
2023-02-27T10:46:29.980Z,2.36
2023-02-27T10:47:32.675Z,2.58
2023-02-27T10:48:34.904Z,2.69
2023-02-27T10:49:38.378Z,2.98
2023-02-27T10:50:44.143Z,2.48
2023-02-27T10:52:07.949Z,2.35
2023-02-27T10:53:27.628Z,2.39
2023-02-27T10:54:29.851Z,2.69
2023-02-27T10:55:38.194Z,2.23
2023-02-27T10:56:41.630Z,2.27
2023-02-27T10:57:46.715Z,2.07
2023-02-27T10:59:03.281Z,2.39
2023-02-27T11:00:22.407Z,2.24
2023-02-27T11:01:24.876Z,2.11
2023-02-27T11:02:38.445Z,2.41
2023-02-27T11:03:43.656Z,2.90
2023-02-27T11:04:53.799Z,2.64
2023-02-27T11:06:00.386Z,2.62
2023-02-27T11:07:06.881Z,2.51
2023-02-27T11:08:22.906Z,2.62
2023-02-27T11:09:28.323Z,2.73
2023-02-27T11:10:30.620Z,2.74
2023-02-27T11:11:32.963Z,2.95
2023-02-27T11:12:35.549Z,2.55
2023-02-27T11:13:43.617Z,2.45
2023-02-27T11:14:57.105Z,2.74
2023-02-27T11:16:15.565Z,2.45
2023-02-27T11:17:23.573Z,2.66
2023-02-27T11:18:29.423Z,2.44
2023-02-27T11:19:37.424Z,2.72
2023-02-27T11:20:43.499Z,2.50
2023-02-27T11:22:05.583Z,2.61
2023-02-27T11:23:25.940Z,2.72
2023-02-27T11:24:29.062Z,2.49
2023-02-27T11:25:31.985Z,2.56
2023-02-27T11:26:40.026Z,2.70
2023-02-27T11:27:42.670Z,2.80
2023-02-27T11:28:45.613Z,2.89
2023-02-27T11:29:57.967Z,2.76
2023-02-27T11:31:05.917Z,3.16
2023-02-27T11:32:15.054Z,3.19
2023-02-27T11:33:20.399Z,2.86
2023-02-27T11:34:32.584Z,2.96
2023-02-27T11:35:38.720Z,3.11
2023-02-27T11:36:47.209Z,3.13
2023-02-27T11:37:51.660Z,2.89
2023-02-27T11:38:55.982Z,2.88
2023-02-27T11:40:14.510Z,2.87
2023-02-27T11:41:16.955Z,3.03
2023-02-27T11:42:28.770Z,3.18
2023-02-27T11:43:40.055Z,3.29
2023-02-27T11:44:53.739Z,3.23
2023-02-27T11:46:32.105Z,2.77
2023-02-27T11:47:36.770Z,2.89
2023-02-27T11:48:46.124Z,2.93
2023-02-27T11:50:00.581Z,3.20
2023-02-27T11:51:11.589Z,3.30
2023-02-27T11:52:22.160Z,3.47
2023-02-27T11:53:24.321Z,3.55
2023-02-27T11:54:35.973Z,3.63
2023-02-27T11:55:38.365Z,3.25
2023-02-27T11:56:45.041Z,3.12
2023-02-27T11:57:54.479Z,2.93
2023-02-27T11:59:06.999Z,2.76
2023-02-27T12:00:39.481Z,2.61
2023-02-27T12:02:15.117Z,2.40
2023-02-27T12:03:26.807Z,2.33
2023-02-27T12:04:44.036Z,2.91
2023-02-27T12:05:50.768Z,2.92
2023-02-27T12:07:22.568Z,2.95
2023-02-27T12:08:42.885Z,2.61
2023-02-27T12:09:51.461Z,2.48
2023-02-27T12:11:13.794Z,2.36
2023-02-27T12:12:29.012Z,2.48
2023-02-27T12:13:36.590Z,2.73
2023-02-27T12:14:39.209Z,3.04
2023-02-27T12:15:56.417Z,2.86
2023-02-27T12:17:28.991Z,2.84
2023-02-27T12:19:02.045Z,3.40
2023-02-27T12:20:21.318Z,2.94
2023-02-27T12:21:42.427Z,2.97
2023-02-27T12:22:48.708Z,2.59
2023-02-27T12:23:56.995Z,2.42
2023-02-27T12:25:01.984Z,2.95
2023-02-27T12:26:30.099Z,3.04
2023-02-27T12:27:48.919Z,3.30
2023-02-27T12:29:18.974Z,3.02
2023-02-27T12:30:26.317Z,2.94
2023-02-27T12:31:34.462Z,2.54
2023-02-27T12:32:54.825Z,2.54
2023-02-27T12:34:29.585Z,2.63
2023-02-27T12:35:33.478Z,2.29
2023-02-27T12:36:36.099Z,2.49
2023-02-27T12:37:38.965Z,2.73
2023-02-27T12:38:42.033Z,2.82
2023-02-27T12:39:47.234Z,2.99
2023-02-27T12:41:08.229Z,2.65
2023-02-27T12:42:32.218Z,2.71
2023-02-27T12:44:00.336Z,2.64
2023-02-27T12:45:38.143Z,2.60
2023-02-27T12:46:49.487Z,2.82
2023-02-27T12:48:13.403Z,2.74
2023-02-27T12:49:28.512Z,2.75
2023-02-27T12:50:43.341Z,2.83
2023-02-27T12:52:14.491Z,2.66
2023-02-27T12:53:54.429Z,2.76
2023-02-27T12:55:11.001Z,2.56
2023-02-27T12:56:17.154Z,2.42
2023-02-27T12:57:41.201Z,2.27
2023-02-27T12:59:03.321Z,2.28
2023-02-27T13:00:12.747Z,2.12
2023-02-27T13:01:18.019Z,2.05
2023-02-27T13:02:45.144Z,2.32
2023-02-27T13:04:00.548Z,2.51
2023-02-27T13:05:17.058Z,2.80
2023-02-27T13:06:47.634Z,2.80
2023-02-27T13:08:14.426Z,2.54
2023-02-27T13:09:44.611Z,2.76
2023-02-27T13:11:21.736Z,2.68
2023-02-27T13:12:46.625Z,2.99
2023-02-27T13:14:07.246Z,3.14
2023-02-27T13:15:18.528Z,2.87
2023-02-27T13:16:33.760Z,2.76
2023-02-27T13:18:17.506Z,2.79
2023-02-27T13:19:27.030Z,2.93
2023-02-27T13:20:49.986Z,2.86
2023-02-27T13:21:55.941Z,2.91
2023-02-27T13:23:40.171Z,2.84
2023-02-27T13:24:49.637Z,2.70
2023-02-27T13:25:55.258Z,2.97
2023-02-27T13:26:59.886Z,3.05
2023-02-27T13:28:07.599Z,2.74
2023-02-27T13:29:18.741Z,2.63
2023-02-27T13:30:38.429Z,2.83
2023-02-27T13:31:57.527Z,2.58
2023-02-27T13:33:24.718Z,2.72
2023-02-27T13:34:34.612Z,2.74
2023-02-27T13:35:53.471Z,2.94
2023-02-27T13:37:06.637Z,2.60
2023-02-27T13:38:44.092Z,2.59
2023-02-27T13:39:50.406Z,2.67
2023-02-27T13:40:53.322Z,2.75
2023-02-27T13:41:55.881Z,2.77
2023-02-27T13:43:51.432Z,2.68
2023-02-27T13:44:56.639Z,2.39
2023-02-27T13:46:01.339Z,2.57
2023-02-27T13:47:39.727Z,2.77
2023-02-27T13:48:44.014Z,2.66
2023-02-27T13:49:46.610Z,2.35
2023-02-27T13:50:51.415Z,2.21
2023-02-27T13:51:56.731Z,2.15
2023-02-27T13:53:10.079Z,2.21
2023-02-27T13:54:19.100Z,2.38
2023-02-27T13:55:36.872Z,2.62
2023-02-27T13:56:42.968Z,2.90
2023-02-27T13:57:47.442Z,3.06
2023-02-27T13:58:50.657Z,2.91
2023-02-27T13:59:56.586Z,2.90
2023-02-27T14:01:01.374Z,2.97
2023-02-27T14:02:11.867Z,2.94
2023-02-27T14:03:25.698Z,3.11
2023-02-27T14:04:33.052Z,3.19
2023-02-27T14:05:42.232Z,3.15
2023-02-27T14:06:47.060Z,3.15
2023-02-27T14:08:10.519Z,3.17
2023-02-27T14:09:17.143Z,2.81
2023-02-27T14:10:28.812Z,2.73
2023-02-27T14:11:39.618Z,3.06
2023-02-27T14:12:45.921Z,3.00
2023-02-27T14:13:49.124Z,3.08
2023-02-27T14:14:51.443Z,3.01
2023-02-27T14:15:57.068Z,2.80
2023-02-27T14:17:00.923Z,2.91
2023-02-27T14:18:16.019Z,3.01
2023-02-27T14:19:22.629Z,3.09
2023-02-27T14:20:27.372Z,2.95
2023-02-27T14:21:51.520Z,2.71
2023-02-27T14:23:15.524Z,2.60
2023-02-27T14:24:38.029Z,2.95
2023-02-27T14:25:56.499Z,3.05
2023-02-27T14:27:00.488Z,3.31
2023-02-27T14:28:04.127Z,3.33
2023-02-27T14:29:06.465Z,3.28
2023-02-27T14:30:25.136Z,3.12
2023-02-27T14:31:32.759Z,3.22
2023-02-27T14:32:37.549Z,2.95
2023-02-27T14:33:45.853Z,2.90
2023-02-27T14:34:49.747Z,3.04
2023-02-27T14:36:02.506Z,3.16
2023-02-27T14:37:11.422Z,2.90
2023-02-27T14:38:16.965Z,2.54
2023-02-27T14:39:27.550Z,2.38
2023-02-27T14:40:36.790Z,2.33
2023-02-27T14:42:10.611Z,2.65
2023-02-27T14:43:18.664Z,2.72
2023-02-27T14:44:27.771Z,2.56
2023-02-27T14:45:31.392Z,2.56
2023-02-27T14:46:40.035Z,2.67
2023-02-27T14:47:42.996Z,2.89
2023-02-27T14:48:45.633Z,2.83
2023-02-27T14:49:48.452Z,2.82
2023-02-27T14:50:54.470Z,2.91
2023-02-27T14:51:57.480Z,2.49
2023-02-27T14:53:01.464Z,2.42
2023-02-27T14:54:12.928Z,2.33
2023-02-27T14:55:36.013Z,2.25
2023-02-27T14:56:38.798Z,2.17
2023-02-27T14:57:52.635Z,2.12
2023-02-27T14:59:04.296Z,2.06
2023-02-27T15:00:07.958Z,2.34
2023-02-27T15:01:10.507Z,2.61
2023-02-27T15:02:23.755Z,2.74
2023-02-27T15:03:31.827Z,2.85
2023-02-27T15:04:34.404Z,2.94
2023-02-27T15:05:38.098Z,3.03
2023-02-27T15:06:45.945Z,3.02
2023-02-27T15:07:48.631Z,3.18
2023-02-27T15:08:54.305Z,3.19
2023-02-27T15:09:59.728Z,3.36
2023-02-27T15:11:03.018Z,3.29
2023-02-27T15:12:05.566Z,3.16
2023-02-27T15:13:28.154Z,3.05
2023-02-27T15:14:34.559Z,2.91
2023-02-27T15:15:36.785Z,2.88
2023-02-27T15:16:39.781Z,2.80
2023-02-27T15:17:46.009Z,2.83
2023-02-27T15:18:53.533Z,2.52
2023-02-27T15:19:58.745Z,2.35
2023-02-27T15:21:01.032Z,2.36
2023-02-27T15:22:18.002Z,2.13
2023-02-27T15:23:26.120Z,2.14
2023-02-27T15:24:47.896Z,2.18
2023-02-27T15:25:57.183Z,2.04
2023-02-27T15:27:06.307Z,2.15
2023-02-27T15:28:22.346Z,2.20
2023-02-27T15:29:33.384Z,2.17
2023-02-27T15:30:35.630Z,2.26
2023-02-27T15:31:38.932Z,2.19
2023-02-27T15:32:42.878Z,2.10
2023-02-27T15:33:45.175Z,2.06
2023-02-27T15:34:47.689Z,2.01
2023-02-27T15:35:50.093Z,2.04
2023-02-27T15:36:55.837Z,2.09
2023-02-27T15:38:00.134Z,2.14
2023-02-27T15:39:24.517Z,2.25
2023-02-27T15:40:33.192Z,2.29
2023-02-27T15:41:36.208Z,2.28
2023-02-27T15:42:39.575Z,2.31
2023-02-27T15:43:42.396Z,2.24
2023-02-27T15:44:47.071Z,2.22
2023-02-27T15:45:50.084Z,2.26
2023-02-27T15:46:53.139Z,2.24
2023-02-27T15:47:55.549Z,2.23
2023-02-27T15:48:57.968Z,2.15
2023-02-27T15:50:25.376Z,2.19
2023-02-27T15:51:28.754Z,2.11
2023-02-27T15:52:38.399Z,2.14
2023-02-27T15:53:50.477Z,2.22
2023-02-27T15:54:54.458Z,2.17
2023-02-27T15:56:05.855Z,2.21
2023-02-27T15:57:08.348Z,2.25
2023-02-27T15:58:23.692Z,2.09
2023-02-27T15:59:27.013Z,2.02
2023-02-27T16:00:30.573Z,1.99
2023-02-27T16:01:34.886Z,2.00
2023-02-27T16:02:44.289Z,1.94
2023-02-27T16:03:49.554Z,1.89
2023-02-27T16:04:52.341Z,1.94
2023-02-27T16:05:54.741Z,1.94
2023-02-27T16:07:14.935Z,1.95
2023-02-27T16:08:20.263Z,1.94
2023-02-27T16:09:30.235Z,1.89
2023-02-27T16:10:40.396Z,1.85
2023-02-27T16:11:42.650Z,1.84
2023-02-27T16:12:46.457Z,1.88
2023-02-27T16:13:49.271Z,1.90
2023-02-27T16:14:53.530Z,1.87
2023-02-27T16:16:00.231Z,1.90
2023-02-27T16:17:02.793Z,1.84
2023-02-27T16:18:07.976Z,1.85
2023-02-27T16:19:27.101Z,1.81
2023-02-27T16:20:40.537Z,1.84
2023-02-27T16:22:12.528Z,1.76
2023-02-27T16:23:27.640Z,1.76
2023-02-27T16:24:31.747Z,1.68
2023-02-27T16:25:34.135Z,1.70
2023-02-27T16:26:37.307Z,1.72
2023-02-27T16:27:39.904Z,1.67
2023-02-27T16:28:52.101Z,1.69
2023-02-27T16:30:02.490Z,1.71
2023-02-27T16:31:24.470Z,1.73
2023-02-27T16:32:30.698Z,1.74
2023-02-27T16:33:36.582Z,1.76
2023-02-27T16:34:46.197Z,1.72
2023-02-27T16:35:50.466Z,1.67
2023-02-27T16:37:03.977Z,1.69
2023-02-27T16:38:06.139Z,1.69
2023-02-27T16:39:14.285Z,1.68
2023-02-27T16:40:24.931Z,1.64
2023-02-27T16:41:27.834Z,1.64
2023-02-27T16:42:30.729Z,1.57
2023-02-27T16:43:33.664Z,1.55
2023-02-27T16:44:36.246Z,1.57
2023-02-27T16:45:50.725Z,1.52
2023-02-27T16:46:55.301Z,1.51
2023-02-27T16:47:59.864Z,1.50
2023-02-27T16:49:17.937Z,1.51
2023-02-27T16:50:30.404Z,1.47
2023-02-27T16:51:34.896Z,1.48
2023-02-27T16:52:37.153Z,1.53
2023-02-27T16:53:39.403Z,1.49
2023-02-27T16:54:42.204Z,1.48
2023-02-27T16:55:45.154Z,1.46
2023-02-27T16:56:48.949Z,1.46
2023-02-27T16:57:51.519Z,1.46
2023-02-27T16:58:54.278Z,1.46
2023-02-27T16:59:57.242Z,1.47
2023-02-27T17:00:59.923Z,1.48
2023-02-27T17:02:05.656Z,1.46
2023-02-27T17:03:08.174Z,1.47
2023-02-27T17:04:23.573Z,1.41
2023-02-27T17:05:28.798Z,1.43
2023-02-27T17:06:31.351Z,1.43
2023-02-27T17:07:33.921Z,1.39
2023-02-27T17:08:36.512Z,1.39
2023-02-27T17:09:38.941Z,1.39
2023-02-27T17:10:41.802Z,1.39
2023-02-27T17:11:44.274Z,1.37
2023-02-27T17:12:49.728Z,1.31
2023-02-27T17:13:53.340Z,1.37
2023-02-27T17:14:56.755Z,1.35
2023-02-27T17:15:59.870Z,1.32
2023-02-27T17:17:03.732Z,1.30
2023-02-27T17:18:07.488Z,1.25
2023-02-27T17:19:11.871Z,1.24
2023-02-27T17:20:14.993Z,1.24
2023-02-27T17:21:17.785Z,1.24
2023-02-27T17:22:20.263Z,1.21
2023-02-27T17:23:22.786Z,1.21
2023-02-27T17:24:25.661Z,1.17
2023-02-27T17:25:28.322Z,1.18
2023-02-27T17:26:31.462Z,1.21
2023-02-27T17:27:34.059Z,1.17
2023-02-27T17:28:36.416Z,1.19
2023-02-27T17:29:39.236Z,1.18
2023-02-27T17:30:42.213Z,1.16
2023-02-27T17:31:45.282Z,1.16
2023-02-27T17:32:47.848Z,1.22
2023-02-27T17:33:51.696Z,1.20
2023-02-27T17:34:57.800Z,1.23
2023-02-27T17:36:06.375Z,1.17
2023-02-27T17:37:09.238Z,1.21
2023-02-27T17:38:11.968Z,1.22
2023-02-27T17:39:15.702Z,1.19
2023-02-27T17:40:18.708Z,1.18
2023-02-27T17:41:21.173Z,1.20
2023-02-27T17:42:25.664Z,1.16
2023-02-27T17:43:28.585Z,1.21
2023-02-27T17:44:31.082Z,1.19
2023-02-27T17:45:33.340Z,1.19
2023-02-27T17:46:36.152Z,1.18
2023-02-27T17:47:38.844Z,1.19
2023-02-27T17:48:41.692Z,1.19
2023-02-27T17:49:44.008Z,1.20
2023-02-27T17:50:46.491Z,1.24
2023-02-27T17:51:49.035Z,1.23
2023-02-27T17:52:51.729Z,1.28
2023-02-27T17:53:54.490Z,1.26
2023-02-27T17:54:57.244Z,1.20
2023-02-27T17:55:59.690Z,1.19
2023-02-27T17:57:02.419Z,1.19
2023-02-27T17:58:05.582Z,1.20
2023-02-27T17:59:08.630Z,1.15
2023-02-27T18:00:15.320Z,1.14
2023-02-27T18:01:22.769Z,1.13
2023-02-27T18:02:25.215Z,1.18
2023-02-27T18:03:27.390Z,1.15
2023-02-27T18:04:30.264Z,1.09
2023-02-27T18:05:32.521Z,1.14
2023-02-27T18:06:35.541Z,1.15
2023-02-27T18:07:38.089Z,1.17
2023-02-27T18:08:40.735Z,1.27
2023-02-27T18:09:45.980Z,1.19
2023-02-27T18:10:50.117Z,1.18
2023-02-27T18:11:52.444Z,1.18
2023-02-27T18:12:54.731Z,1.17
2023-02-27T18:13:57.617Z,1.33
2023-02-27T18:15:00.482Z,1.23
2023-02-27T18:16:02.903Z,1.24
2023-02-27T18:17:11.948Z,1.23
2023-02-27T18:18:14.193Z,1.24
2023-02-27T18:19:17.489Z,1.21
2023-02-27T18:20:19.958Z,1.28
2023-02-27T18:21:24.230Z,1.31
2023-02-27T18:22:27.510Z,1.16
2023-02-27T18:23:30.284Z,1.22
2023-02-27T18:24:32.541Z,1.34
2023-02-27T18:25:36.078Z,1.11
2023-02-27T18:26:39.501Z,1.14
2023-02-27T18:27:41.953Z,1.09
2023-02-27T18:28:44.720Z,1.05
2023-02-27T18:29:47.047Z,1.08
2023-02-27T18:30:49.853Z,1.07
2023-02-27T18:31:54.878Z,1.03
2023-02-27T18:32:58.963Z,1.07
2023-02-27T18:34:02.322Z,1.08
2023-02-27T18:35:05.863Z,1.07
2023-02-27T18:36:08.782Z,1.01
2023-02-27T18:37:11.429Z,1.02
2023-02-27T18:38:13.681Z,1.04
2023-02-27T18:39:16.077Z,1.03
2023-02-27T18:40:21.366Z,1.05
2023-02-27T18:41:23.833Z,1.24
2023-02-27T18:42:26.235Z,1.13
2023-02-27T18:43:28.624Z,1.03
2023-02-27T18:44:31.157Z,1.01
2023-02-27T18:45:33.784Z,0.97
2023-02-27T18:46:37.915Z,1.00
2023-02-27T18:47:40.235Z,0.97
2023-02-27T18:48:46.521Z,0.94
2023-02-27T18:49:48.811Z,0.92
2023-02-27T18:50:51.377Z,0.92
2023-02-27T18:51:53.949Z,0.94
2023-02-27T18:52:56.688Z,0.94
2023-02-27T18:54:00.770Z,0.91
2023-02-27T18:55:03.252Z,0.91
2023-02-27T18:56:08.793Z,0.88
2023-02-27T18:57:11.060Z,0.86
2023-02-27T18:58:13.333Z,0.85
2023-02-27T18:59:15.828Z,0.92
2023-02-27T19:00:21.518Z,1.02
2023-02-27T19:01:25.893Z,0.97
2023-02-27T19:02:28.368Z,0.94
2023-02-27T19:03:31.337Z,0.89
2023-02-27T19:04:34.055Z,0.87
2023-02-27T19:05:42.390Z,0.83
2023-02-27T19:06:44.711Z,0.84
2023-02-27T19:07:47.168Z,0.80
2023-02-27T19:08:49.522Z,0.80
2023-02-27T19:09:51.853Z,0.79
2023-02-27T19:10:55.140Z,0.80
2023-02-27T19:11:57.331Z,0.79
2023-02-27T19:12:59.820Z,0.79
2023-02-27T19:14:04.569Z,0.75
2023-02-27T19:15:08.258Z,0.71
2023-02-27T19:16:10.645Z,0.68
2023-02-27T19:17:13.058Z,0.64
2023-02-27T19:18:15.594Z,0.62
2023-02-27T19:19:18.597Z,0.61
2023-02-27T19:20:21.277Z,0.59
2023-02-27T19:21:24.944Z,0.69
2023-02-27T19:22:29.401Z,0.61
2023-02-27T19:23:31.889Z,0.62
2023-02-27T19:24:34.158Z,0.54
2023-02-27T19:25:39.212Z,0.49
2023-02-27T19:26:41.864Z,0.44
2023-02-27T19:27:45.887Z,0.41
2023-02-27T19:28:53.716Z,0.35
2023-02-27T19:29:56.070Z,0.32
2023-02-27T19:30:58.489Z,0.30
2023-02-27T19:32:02.205Z,0.29
2023-02-27T19:33:04.554Z,0.28
2023-02-27T19:34:07.084Z,0.21
2023-02-27T19:35:14.141Z,0.24
2023-02-27T19:36:19.723Z,0.24
2023-02-27T19:37:22.101Z,0.16
2023-02-27T19:38:24.752Z,0.17
2023-02-27T19:39:27.137Z,0.13
2023-02-27T19:40:29.601Z,0.14
2023-02-27T19:41:33.486Z,0.18
2023-02-27T19:42:36.468Z,0.15
2023-02-27T19:43:40.394Z,0.17
2023-02-27T19:44:43.132Z,0.13
2023-02-27T19:45:45.404Z,0.08
2023-02-27T19:46:51.567Z,0.09
2023-02-27T19:47:54.179Z,0.08
2023-02-27T19:48:59.022Z,0.07
2023-02-27T19:50:01.404Z,0.05
2023-02-27T19:51:05.824Z,0.02
2023-02-27T19:52:10.191Z,0.09
2023-02-27T19:53:13.402Z,0.04
2023-02-27T19:54:16.384Z,0.02
2023-02-27T19:55:18.704Z,0.04
2023-02-27T19:56:24.056Z,0.01
2023-02-27T19:57:26.359Z,0.06
2023-02-27T19:58:30.151Z,0.08
2023-02-27T19:59:32.493Z,0.05
2023-02-27T20:00:34.868Z,0.04
2023-02-27T20:01:38.877Z,0.03
2023-02-27T20:02:41.223Z,-0.01
2023-02-27T20:03:43.955Z,0.00
2023-02-27T20:04:48.029Z,-0.04
2023-02-27T20:05:50.992Z,-0.03
2023-02-27T20:06:53.733Z,0.01
2023-02-27T20:07:56.727Z,0.03
2023-02-27T20:09:00.308Z,0.01
2023-02-27T20:10:02.544Z,0.01
2023-02-27T20:11:05.069Z,0.00
2023-02-27T20:12:07.509Z,0.01
2023-02-27T20:13:10.000Z,0.02
2023-02-27T20:14:14.534Z,0.03
2023-02-27T20:15:16.905Z,0.01
2023-02-27T20:16:23.812Z,0.02
2023-02-27T20:17:26.251Z,0.03
2023-02-27T20:18:29.917Z,0.02
2023-02-27T20:19:32.154Z,0.02
2023-02-27T20:20:34.431Z,0.03
2023-02-27T20:21:37.384Z,0.02
2023-02-27T20:22:43.173Z,0.00
2023-02-27T20:23:47.163Z,-0.01
2023-02-27T20:24:49.467Z,-0.03
2023-02-27T20:25:51.812Z,0.00
2023-02-27T20:26:54.909Z,0.02
2023-02-27T20:27:57.638Z,0.06
2023-02-27T20:29:03.535Z,0.08
2023-02-27T20:30:06.870Z,0.12
2023-02-27T20:31:12.543Z,0.11
2023-02-27T20:32:15.026Z,0.09
2023-02-27T20:33:17.400Z,0.09
2023-02-27T20:34:22.575Z,0.05
2023-02-27T20:35:25.028Z,0.03
2023-02-27T20:36:28.539Z,0.04
2023-02-27T20:37:35.282Z,0.02
2023-02-27T20:38:39.156Z,-0.01
2023-02-27T20:39:45.153Z,-0.02
2023-02-27T20:40:47.495Z,-0.05
2023-02-27T20:41:49.675Z,-0.10
2023-02-27T20:42:51.926Z,-0.07
2023-02-27T20:43:54.293Z,-0.13
2023-02-27T20:44:56.520Z,-0.16
2023-02-27T20:46:02.772Z,-0.18
2023-02-27T20:47:05.014Z,-0.16
2023-02-27T20:48:07.333Z,-0.19
2023-02-27T20:49:12.303Z,-0.23
2023-02-27T20:50:14.826Z,-0.26
2023-02-27T20:51:22.919Z,-0.28
2023-02-27T20:52:25.161Z,-0.33
2023-02-27T20:53:27.413Z,-0.40
2023-02-27T20:54:29.657Z,-0.41
2023-02-27T20:55:32.216Z,-0.42
2023-02-27T20:56:38.302Z,-0.47
2023-02-27T20:57:40.702Z,-0.50
2023-02-27T20:58:43.143Z,-0.56
2023-02-27T21:00:12.194Z,-0.54
2023-02-27T21:01:16.406Z,-0.60
2023-02-27T21:02:18.977Z,-0.63
2023-02-27T21:03:21.507Z,-0.66
2023-02-27T21:04:42.299Z,-0.70
2023-02-27T21:05:49.165Z,-0.76
2023-02-27T21:06:52.832Z,-0.79
2023-02-27T21:07:55.460Z,-0.80
2023-02-27T21:08:58.284Z,-0.81
2023-02-27T21:10:01.325Z,-0.85
2023-02-27T21:11:13.942Z,-0.81
2023-02-27T21:12:18.274Z,-0.89
2023-02-27T21:13:21.321Z,-0.88
2023-02-27T21:14:24.132Z,-0.87
2023-02-27T21:15:27.741Z,-0.90
2023-02-27T21:16:31.058Z,-0.88
2023-02-27T21:17:33.746Z,-0.95
2023-02-27T21:18:37.587Z,-0.99
2023-02-27T21:19:40.212Z,-0.96
2023-02-27T21:20:44.234Z,-0.91
2023-02-27T21:21:47.491Z,-0.94
2023-02-27T21:22:50.371Z,-1.03
2023-02-27T21:23:54.690Z,-1.04
2023-02-27T21:24:58.046Z,-1.06
2023-02-27T21:26:04.287Z,-1.08
2023-02-27T21:27:07.888Z,-1.10
2023-02-27T21:28:11.707Z,-1.13
2023-02-27T21:29:18.973Z,-1.09
2023-02-27T21:30:21.839Z,-1.11
2023-02-27T21:31:25.729Z,-1.10
2023-02-27T21:32:28.901Z,-1.10
2023-02-27T21:33:31.253Z,-1.06
2023-02-27T21:34:34.175Z,-1.10
2023-02-27T21:35:36.631Z,-1.08
2023-02-27T21:36:42.267Z,-1.12
2023-02-27T21:37:46.925Z,-1.14
2023-02-27T21:38:49.285Z,-1.10
2023-02-27T21:39:55.186Z,-1.12
2023-02-27T21:40:58.931Z,-1.16
2023-02-27T21:42:02.485Z,-1.14
2023-02-27T21:43:05.330Z,-1.14
2023-02-27T21:44:09.308Z,-1.13
2023-02-27T21:45:12.349Z,-1.17
2023-02-27T21:46:14.971Z,-1.21
2023-02-27T21:47:18.982Z,-1.28
2023-02-27T21:48:21.546Z,-1.26
2023-02-27T21:49:27.849Z,-1.27
2023-02-27T21:50:31.688Z,-1.31
2023-02-27T21:51:40.372Z,-1.26
2023-02-27T21:52:44.277Z,-1.25
2023-02-27T21:53:47.035Z,-1.28
2023-02-27T21:54:50.497Z,-1.31
2023-02-27T21:55:54.949Z,-1.34
2023-02-27T21:57:01.648Z,-1.32